createdAt,value
2023-09-23T00:00:19.310Z,100245.00
2023-09-23T00:02:46.227Z,100248.00
2023-09-23T00:05:16.359Z,100264.00
2023-09-23T00:07:44.559Z,100260.00
2023-09-23T00:10:12.537Z,100260.00
2023-09-23T00:12:41.710Z,100258.00
2023-09-23T00:15:11.906Z,100276.00
2023-09-23T00:17:39.236Z,100274.00
2023-09-23T00:20:11.310Z,100276.00
2023-09-23T00:22:41.445Z,100281.00
2023-09-23T00:25:09.269Z,100281.00
2023-09-23T00:27:36.366Z,100284.00
2023-09-23T00:30:06.098Z,100295.00
2023-09-23T00:32:35.989Z,100280.00
2023-09-23T00:35:02.986Z,100289.00
2023-09-23T00:37:31.711Z,100292.00
2023-09-23T00:39:58.602Z,100288.00
2023-09-23T00:42:25.452Z,100279.00
2023-09-23T00:44:52.262Z,100281.00
2023-09-23T00:47:20.672Z,100277.00
2023-09-23T00:49:48.391Z,100263.00
2023-09-23T00:52:18.049Z,100262.00
2023-09-23T00:54:45.806Z,100261.00
2023-09-23T00:57:17.960Z,100255.00
2023-09-23T00:59:44.732Z,100246.00
2023-09-23T01:02:15.320Z,100247.00
2023-09-23T01:04:42.254Z,100238.00
2023-09-23T01:07:10.698Z,100241.00
2023-09-23T01:09:38.507Z,100234.00
2023-09-23T01:12:05.839Z,100242.00
2023-09-23T01:14:32.905Z,100241.00
2023-09-23T01:16:59.801Z,100229.00
2023-09-23T01:19:27.115Z,100255.00
2023-09-23T01:21:57.267Z,100255.00
2023-09-23T01:24:25.293Z,100244.00
2023-09-23T01:26:52.491Z,100254.00
2023-09-23T01:29:23.855Z,100259.00
2023-09-23T01:32:26.496Z,100261.00
2023-09-23T01:34:53.964Z,100267.00
2023-09-23T01:37:21.112Z,100278.00
2023-09-23T01:39:53.440Z,100268.00
2023-09-23T01:42:20.725Z,100278.00
2023-09-23T01:44:47.534Z,100280.00
2023-09-23T01:47:17.308Z,100285.00
2023-09-23T01:49:44.794Z,100280.00
2023-09-23T01:52:11.579Z,100265.00
2023-09-23T01:54:38.364Z,100267.00
2023-09-23T01:57:05.230Z,100272.00
2023-09-23T01:59:33.451Z,100274.00
2023-09-23T02:02:00.937Z,100270.00
2023-09-23T02:04:27.784Z,100267.00
2023-09-23T02:06:54.537Z,100264.00
2023-09-23T02:09:21.605Z,100274.00
2023-09-23T02:11:49.289Z,100279.00
2023-09-23T02:14:16.069Z,100287.00
2023-09-23T02:16:43.458Z,100281.00
2023-09-23T02:19:10.342Z,100294.00
2023-09-23T02:21:37.097Z,100283.00
2023-09-23T02:24:04.055Z,100288.00
2023-09-23T02:26:31.121Z,100288.00
2023-09-23T02:28:57.993Z,100302.00
2023-09-23T02:31:25.520Z,100305.00
2023-09-23T02:33:52.342Z,100306.00
2023-09-23T02:36:19.148Z,100312.00
2023-09-23T02:38:46.195Z,100311.00
2023-09-23T02:41:13.197Z,100313.00
2023-09-23T02:43:40.078Z,100316.00
2023-09-23T02:46:07.883Z,100308.00
2023-09-23T02:48:35.051Z,100306.00
2023-09-23T02:51:02.261Z,100310.00
2023-09-23T02:53:31.782Z,100316.00
2023-09-23T02:56:10.086Z,100317.00
2023-09-23T02:58:37.061Z,100311.00
2023-09-23T03:01:06.305Z,100335.00
2023-09-23T03:03:35.054Z,100333.00
2023-09-23T03:06:08.819Z,100339.00
2023-09-23T03:08:38.604Z,100340.00
2023-09-23T03:11:11.065Z,100351.00
2023-09-23T03:13:39.058Z,100353.00
2023-09-23T03:16:09.907Z,100354.00
2023-09-23T03:18:55.957Z,100353.00
2023-09-23T03:21:22.762Z,100346.00
2023-09-23T03:23:49.558Z,100347.00
2023-09-23T03:26:20.262Z,100353.00
2023-09-23T03:28:48.148Z,100367.00
2023-09-23T03:31:15.810Z,100366.00
2023-09-23T03:33:43.959Z,100362.00
2023-09-23T03:36:17.701Z,100362.00
2023-09-23T03:38:44.928Z,100372.00
2023-09-23T03:41:13.220Z,100365.00
2023-09-23T03:43:40.646Z,100353.00
2023-09-23T03:46:18.174Z,100366.00
2023-09-23T03:48:46.127Z,100359.00
2023-09-23T03:51:15.843Z,100359.00
2023-09-23T03:53:45.577Z,100368.00
2023-09-23T03:56:12.639Z,100371.00
2023-09-23T03:58:42.344Z,100363.00
2023-09-23T04:01:14.943Z,100363.00
2023-09-23T04:03:42.806Z,100381.00
2023-09-23T04:06:09.805Z,100372.00
2023-09-23T04:08:37.208Z,100377.00
2023-09-23T04:11:11.489Z,100382.00
2023-09-23T04:13:39.268Z,100393.00
2023-09-23T04:16:06.761Z,100398.00
2023-09-23T04:18:33.930Z,100393.00
2023-09-23T04:21:03.881Z,100395.00
2023-09-23T04:23:31.420Z,100408.00
2023-09-23T04:25:58.966Z,100404.00
2023-09-23T04:28:26.012Z,100408.00
2023-09-23T04:30:55.543Z,100401.00
2023-09-23T04:33:23.985Z,100403.00
2023-09-23T04:35:52.470Z,100422.00
2023-09-23T04:38:19.485Z,100432.00
2023-09-23T04:40:47.449Z,100433.00
2023-09-23T04:43:14.441Z,100436.00
2023-09-23T04:45:41.267Z,100445.00
2023-09-23T04:48:08.439Z,100432.00
2023-09-23T04:50:35.802Z,100438.00
2023-09-23T04:53:03.860Z,100447.00
2023-09-23T04:55:30.689Z,100437.00
2023-09-23T04:57:57.532Z,100437.00
2023-09-23T05:00:24.303Z,100450.00
2023-09-23T05:02:51.386Z,100457.00
2023-09-23T05:05:22.160Z,100456.00
2023-09-23T05:07:49.099Z,100464.00
2023-09-23T05:10:16.030Z,100464.00
2023-09-23T05:12:46.330Z,100469.00
2023-09-23T05:15:16.305Z,100470.00
2023-09-23T05:17:45.309Z,100476.00
2023-09-23T05:20:23.247Z,100479.00
2023-09-23T05:22:50.153Z,100477.00
2023-09-23T05:25:17.353Z,100477.00
2023-09-23T05:27:44.751Z,100489.00
2023-09-23T05:30:12.589Z,100492.00
2023-09-23T05:32:39.525Z,100486.00
2023-09-23T05:35:10.992Z,100505.00
2023-09-23T05:37:40.623Z,100507.00
2023-09-23T05:40:23.059Z,100502.00
2023-09-23T05:42:51.551Z,100511.00
2023-09-23T05:45:18.968Z,100521.00
2023-09-23T05:47:46.683Z,100537.00
2023-09-23T05:50:15.647Z,100541.00
2023-09-23T05:52:42.861Z,100541.00
2023-09-23T05:55:09.759Z,100546.00
2023-09-23T05:57:36.602Z,100556.00
2023-09-23T06:00:06.642Z,100550.00
2023-09-23T06:02:33.707Z,100551.00
2023-09-23T06:05:03.669Z,100549.00
2023-09-23T06:07:32.881Z,100559.00
2023-09-23T06:10:01.009Z,100557.00
2023-09-23T06:12:32.045Z,100566.00
2023-09-23T06:15:01.132Z,100563.00
2023-09-23T06:17:29.718Z,100560.00
2023-09-23T06:20:01.180Z,100566.00
2023-09-23T06:22:28.846Z,100565.00
2023-09-23T06:24:56.081Z,100574.00
2023-09-23T06:27:23.002Z,100568.00
2023-09-23T06:29:49.783Z,100578.00
2023-09-23T06:32:16.697Z,100589.00
2023-09-23T06:34:43.646Z,100582.00
2023-09-23T06:37:10.535Z,100589.00
2023-09-23T06:39:37.337Z,100598.00
2023-09-23T06:42:04.309Z,100590.00
2023-09-23T06:44:31.231Z,100589.00
2023-09-23T06:46:59.812Z,100591.00
2023-09-23T06:49:28.033Z,100602.00
2023-09-23T06:51:54.780Z,100601.00
2023-09-23T06:54:21.589Z,100609.00
2023-09-23T06:56:48.445Z,100613.00
2023-09-23T06:59:15.347Z,100615.00
2023-09-23T07:01:42.135Z,100616.00
2023-09-23T07:04:10.287Z,100627.00
2023-09-23T07:06:37.456Z,100628.00
2023-09-23T07:09:06.344Z,100627.00
2023-09-23T07:11:33.459Z,100638.00
2023-09-23T07:14:01.932Z,100643.00
2023-09-23T07:16:28.972Z,100644.00
2023-09-23T07:18:56.658Z,100638.00
2023-09-23T07:21:23.440Z,100647.00
2023-09-23T07:23:50.637Z,100655.00
2023-09-23T07:26:22.260Z,100659.00
2023-09-23T07:28:52.788Z,100652.00
2023-09-23T07:31:19.816Z,100649.00
2023-09-23T07:33:46.914Z,100651.00
2023-09-23T07:36:15.018Z,100661.00
2023-09-23T07:38:42.574Z,100661.00
2023-09-23T07:41:09.478Z,100669.00
2023-09-23T07:43:36.520Z,100665.00
2023-09-23T07:46:03.543Z,100672.00
2023-09-23T07:48:30.402Z,100672.00
2023-09-23T07:50:57.295Z,100680.00
2023-09-23T07:53:24.164Z,100690.00
2023-09-23T07:55:51.051Z,100681.00
2023-09-23T07:58:18.154Z,100694.00
2023-09-23T08:00:44.970Z,100679.00
2023-09-23T08:03:11.944Z,100704.00
2023-09-23T08:05:38.991Z,100699.00
2023-09-23T08:08:07.467Z,100697.00
2023-09-23T08:10:34.276Z,100698.00
2023-09-23T08:13:01.071Z,100703.00
2023-09-23T08:15:28.013Z,100706.00
2023-09-23T08:17:55.050Z,100713.00
2023-09-23T08:20:23.853Z,100716.00
2023-09-23T08:22:51.160Z,100720.00
2023-09-23T08:25:19.744Z,100717.00
2023-09-23T08:27:47.544Z,100730.00
2023-09-23T08:30:17.642Z,100734.00
2023-09-23T08:32:45.558Z,100729.00
2023-09-23T08:35:13.087Z,100747.00
2023-09-23T08:37:40.086Z,100751.00
2023-09-23T08:40:11.978Z,100759.00
2023-09-23T08:42:40.141Z,100760.00
2023-09-23T08:45:11.698Z,100766.00
2023-09-23T08:47:39.521Z,100767.00
2023-09-23T08:50:10.193Z,100772.00
2023-09-23T08:52:37.875Z,100782.00
2023-09-23T08:55:06.866Z,100783.00
2023-09-23T08:57:34.170Z,100791.00
2023-09-23T09:00:01.096Z,100794.00
2023-09-23T09:02:28.073Z,100792.00
2023-09-23T09:04:56.756Z,100790.00
2023-09-23T09:07:34.605Z,100795.00
2023-09-23T09:10:01.848Z,100813.00
2023-09-23T09:12:28.768Z,100799.00
2023-09-23T09:14:56.524Z,100810.00
2023-09-23T09:17:23.410Z,100801.00
2023-09-23T09:19:51.201Z,100804.00
2023-09-23T09:22:20.687Z,100817.00
2023-09-23T09:24:47.990Z,100829.00
2023-09-23T09:27:15.759Z,100833.00
2023-09-23T09:29:45.138Z,100826.00
2023-09-23T09:32:12.659Z,100830.00
2023-09-23T09:34:47.832Z,100820.00
2023-09-23T09:37:16.125Z,100824.00
2023-09-23T09:39:58.313Z,100821.00
2023-09-23T09:42:33.684Z,100828.00
2023-09-23T09:45:01.239Z,100830.00
2023-09-23T09:47:29.549Z,100830.00
2023-09-23T09:49:58.343Z,100822.00
2023-09-23T09:52:27.264Z,100823.00
2023-09-23T09:54:59.503Z,100827.00
2023-09-23T09:57:30.377Z,100828.00
2023-09-23T10:00:10.238Z,100844.00
2023-09-23T10:02:39.265Z,100847.00
2023-09-23T10:05:07.248Z,100836.00
2023-09-23T10:07:56.702Z,100844.00
2023-09-23T10:10:35.748Z,100838.00
2023-09-23T10:13:13.045Z,100848.00
2023-09-23T10:15:41.821Z,100847.00
2023-09-23T10:18:17.902Z,100855.00
2023-09-23T10:20:51.615Z,100850.00
2023-09-23T10:23:21.271Z,100849.00
2023-09-23T10:25:53.566Z,100856.00
2023-09-23T10:28:31.283Z,100852.00
2023-09-23T10:30:59.847Z,100854.00
2023-09-23T10:33:28.453Z,100862.00
2023-09-23T10:35:58.550Z,100847.00
2023-09-23T10:38:36.815Z,100856.00
2023-09-23T10:41:05.275Z,100860.00
2023-09-23T10:43:35.388Z,100867.00
2023-09-23T10:46:06.445Z,100873.00
2023-09-23T10:48:33.996Z,100879.00
2023-09-23T10:51:02.476Z,100875.00
2023-09-23T10:53:29.560Z,100872.00
2023-09-23T10:55:59.188Z,100872.00
2023-09-23T10:58:26.499Z,100868.00
2023-09-23T11:00:54.129Z,100876.00
2023-09-23T11:03:22.715Z,100876.00
2023-09-23T11:05:50.194Z,100873.00
2023-09-23T11:08:21.527Z,100882.00
2023-09-23T11:10:50.477Z,100876.00
2023-09-23T11:13:18.084Z,100877.00
2023-09-23T11:15:46.546Z,100874.00
2023-09-23T11:18:16.575Z,100879.00
2023-09-23T11:20:48.414Z,100887.00
2023-09-23T11:23:15.569Z,100881.00
2023-09-23T11:25:47.829Z,100877.00
2023-09-23T11:28:20.812Z,100882.00
2023-09-23T11:30:49.710Z,100886.00
2023-09-23T11:33:17.442Z,100886.00
2023-09-23T11:35:45.449Z,100880.00
2023-09-23T11:38:13.943Z,100885.00
2023-09-23T11:40:41.582Z,100886.00
2023-09-23T11:43:09.714Z,100886.00
2023-09-23T11:45:36.731Z,100885.00
2023-09-23T11:48:07.149Z,100887.00
2023-09-23T11:50:34.373Z,100884.00
2023-09-23T11:53:01.213Z,100882.00
2023-09-23T11:55:28.531Z,100891.00
2023-09-23T11:57:55.602Z,100890.00
2023-09-23T12:00:22.630Z,100896.00
2023-09-23T12:02:49.545Z,100884.00
2023-09-23T12:05:17.808Z,100898.00
2023-09-23T12:07:45.616Z,100899.00
2023-09-23T12:10:16.640Z,100905.00
2023-09-23T12:12:46.550Z,100911.00
2023-09-23T12:15:13.375Z,100905.00
2023-09-23T12:17:40.324Z,100912.00
2023-09-23T12:20:12.756Z,100912.00
2023-09-23T12:22:40.245Z,100912.00
2023-09-23T12:25:07.992Z,100924.00
2023-09-23T12:27:35.420Z,100921.00
2023-09-23T12:30:02.436Z,100918.00
2023-09-23T12:32:29.861Z,100919.00
2023-09-23T12:34:57.482Z,100921.00
2023-09-23T12:37:28.236Z,100927.00
2023-09-23T12:39:56.908Z,100933.00
2023-09-23T12:42:24.367Z,100938.00
2023-09-23T12:44:51.229Z,100940.00
2023-09-23T12:47:18.110Z,100961.00
2023-09-23T12:49:47.995Z,100954.00
2023-09-23T12:52:14.773Z,100959.00
2023-09-23T12:54:41.611Z,100954.00
2023-09-23T12:57:08.446Z,100968.00
2023-09-23T12:59:35.309Z,100958.00
2023-09-23T13:02:02.781Z,100969.00
2023-09-23T13:04:30.446Z,100968.00
2023-09-23T13:06:57.206Z,100969.00
2023-09-23T13:09:23.988Z,100976.00
2023-09-23T13:11:50.857Z,100983.00
2023-09-23T13:14:18.086Z,100973.00
2023-09-23T13:16:47.731Z,100980.00
2023-09-23T13:19:16.431Z,100986.00
2023-09-23T13:21:43.386Z,100986.00
2023-09-23T13:24:10.267Z,100980.00
2023-09-23T13:26:37.162Z,100993.00
2023-09-23T13:29:04.952Z,101001.00
2023-09-23T13:31:33.106Z,100990.00
2023-09-23T13:33:59.951Z,100988.00
2023-09-23T13:36:26.912Z,100996.00
2023-09-23T13:38:53.747Z,101011.00
2023-09-23T13:41:20.594Z,101008.00
2023-09-23T13:43:47.397Z,101009.00
2023-09-23T13:46:14.615Z,101013.00
2023-09-23T13:48:41.596Z,101005.00
2023-09-23T13:51:09.459Z,101018.00
2023-09-23T13:53:36.298Z,101014.00
2023-09-23T13:56:03.864Z,101028.00
2023-09-23T13:58:30.859Z,101020.00
2023-09-23T14:00:57.791Z,101029.00
2023-09-23T14:03:24.772Z,101035.00
2023-09-23T14:05:51.650Z,101042.00
2023-09-23T14:08:18.425Z,101044.00
2023-09-23T14:10:45.266Z,101035.00
2023-09-23T14:13:12.461Z,101049.00
2023-09-23T14:15:39.253Z,101036.00
2023-09-23T14:18:09.001Z,101056.00
2023-09-23T14:20:36.190Z,101050.00
2023-09-23T14:23:03.101Z,101066.00
2023-09-23T14:25:30.340Z,101060.00
2023-09-23T14:27:57.224Z,101061.00
2023-09-23T14:30:24.027Z,101069.00
2023-09-23T14:32:50.919Z,101071.00
2023-09-23T14:35:17.754Z,101075.00
2023-09-23T14:37:46.249Z,101082.00
2023-09-23T14:40:13.433Z,101069.00
2023-09-23T14:42:41.014Z,101072.00
2023-09-23T14:45:08.432Z,101068.00
2023-09-23T14:47:35.273Z,101081.00
2023-09-23T14:50:02.285Z,101077.00
2023-09-23T14:52:29.146Z,101080.00
2023-09-23T14:54:56.298Z,101076.00
2023-09-23T14:57:23.120Z,101083.00
2023-09-23T14:59:52.692Z,101080.00
2023-09-23T15:02:20.163Z,101083.00
2023-09-23T15:04:47.279Z,101089.00
2023-09-23T15:07:14.145Z,101092.00
2023-09-23T15:09:41.223Z,101096.00
2023-09-23T15:12:07.982Z,101100.00
2023-09-23T15:14:36.608Z,101096.00
2023-09-23T15:17:03.789Z,101115.00
2023-09-23T15:19:30.592Z,101111.00
2023-09-23T15:21:57.376Z,101116.00
2023-09-23T15:24:24.190Z,101125.00
2023-09-23T15:26:51.183Z,101142.00
2023-09-23T15:29:18.057Z,101142.00
2023-09-23T15:31:44.910Z,101138.00
2023-09-23T15:34:11.683Z,101143.00
2023-09-23T15:36:38.488Z,101140.00
2023-09-23T15:39:05.805Z,101141.00
2023-09-23T15:41:32.792Z,101128.00
2023-09-23T15:43:59.689Z,101131.00
2023-09-23T15:46:26.472Z,101133.00
2023-09-23T15:48:53.237Z,101150.00
2023-09-23T15:51:20.889Z,101145.00
2023-09-23T15:53:48.495Z,101151.00
2023-09-23T15:56:15.479Z,101164.00
2023-09-23T15:58:42.490Z,101168.00
2023-09-23T16:01:09.457Z,101170.00
2023-09-23T16:03:36.737Z,101172.00
2023-09-23T16:06:03.937Z,101168.00
2023-09-23T16:08:32.079Z,101163.00
2023-09-23T16:10:59.077Z,101167.00
2023-09-23T16:13:25.915Z,101173.00
2023-09-23T16:15:52.841Z,101178.00
2023-09-23T16:18:22.970Z,101179.00
2023-09-23T16:20:51.958Z,101189.00
2023-09-23T16:23:19.610Z,101197.00
2023-09-23T16:25:47.171Z,101190.00
2023-09-23T16:28:14.136Z,101199.00
2023-09-23T16:30:42.976Z,101198.00
2023-09-23T16:33:10.014Z,101208.00
2023-09-23T16:35:38.169Z,101217.00
2023-09-23T16:38:05.263Z,101211.00
2023-09-23T16:40:32.112Z,101228.00
2023-09-23T16:42:59.038Z,101222.00
2023-09-23T16:45:25.879Z,101228.00
2023-09-23T16:47:52.775Z,101233.00
2023-09-23T16:50:19.770Z,101231.00
2023-09-23T16:52:46.768Z,101229.00
2023-09-23T16:55:13.543Z,101240.00
2023-09-23T16:57:40.570Z,101243.00
2023-09-23T17:00:09.066Z,101245.00
2023-09-23T17:02:36.049Z,101245.00
2023-09-23T17:05:03.170Z,101252.00
2023-09-23T17:07:30.118Z,101255.00
2023-09-23T17:09:56.900Z,101254.00
2023-09-23T17:12:23.691Z,101258.00
2023-09-23T17:14:51.528Z,101258.00
2023-09-23T17:17:18.464Z,101251.00
2023-09-23T17:19:46.495Z,101263.00
2023-09-23T17:22:13.344Z,101263.00
2023-09-23T17:24:40.272Z,101268.00
2023-09-23T17:27:07.043Z,101259.00
2023-09-23T17:29:34.659Z,101259.00
2023-09-23T17:32:01.544Z,101255.00
2023-09-23T17:34:28.379Z,101262.00
2023-09-23T17:36:55.223Z,101261.00
2023-09-23T17:39:23.691Z,101263.00
2023-09-23T17:41:50.843Z,101265.00
2023-09-23T17:44:18.042Z,101273.00
2023-09-23T17:46:46.526Z,101280.00
2023-09-23T17:49:13.838Z,101285.00
2023-09-23T17:51:40.727Z,101290.00
2023-09-23T17:54:07.770Z,101298.00
2023-09-23T17:56:35.085Z,101290.00
2023-09-23T17:59:02.083Z,101283.00
2023-09-23T18:01:28.921Z,101293.00
2023-09-23T18:03:55.876Z,101293.00
2023-09-23T18:06:23.019Z,101296.00
2023-09-23T18:08:49.901Z,101298.00
2023-09-23T18:11:16.815Z,101292.00
2023-09-23T18:13:43.749Z,101294.00
2023-09-23T18:16:10.618Z,101304.00
2023-09-23T18:18:38.030Z,101301.00
2023-09-23T18:21:05.423Z,101300.00
2023-09-23T18:23:32.992Z,101302.00
2023-09-23T18:25:59.827Z,101297.00
2023-09-23T18:28:27.415Z,101316.00
2023-09-23T18:30:54.232Z,101310.00
2023-09-23T18:33:21.105Z,101330.00
2023-09-23T18:35:48.310Z,101331.00
2023-09-23T18:38:15.237Z,101332.00
2023-09-23T18:40:42.007Z,101335.00
2023-09-23T18:43:11.057Z,101331.00
2023-09-23T18:45:37.885Z,101332.00
2023-09-23T18:48:22.532Z,101337.00
2023-09-23T18:50:51.937Z,101347.00
2023-09-23T18:53:19.007Z,101350.00
2023-09-23T18:55:47.145Z,101363.00
2023-09-23T18:58:14.044Z,101371.00
2023-09-23T19:00:41.172Z,101370.00
2023-09-23T19:03:08.513Z,101383.00
2023-09-23T19:05:36.221Z,101379.00
2023-09-23T19:08:04.024Z,101387.00
2023-09-23T19:10:30.847Z,101388.00
2023-09-23T19:12:57.717Z,101391.00
2023-09-23T19:15:24.551Z,101396.00
2023-09-23T19:17:52.107Z,101402.00
2023-09-23T19:20:19.086Z,101411.00
2023-09-23T19:22:45.958Z,101415.00
2023-09-23T19:25:12.781Z,101418.00
2023-09-23T19:27:42.242Z,101415.00
2023-09-23T19:30:14.462Z,101419.00
2023-09-23T19:32:42.855Z,101412.00
2023-09-23T19:35:10.434Z,101417.00
2023-09-23T19:37:38.752Z,101410.00
2023-09-23T19:40:07.338Z,101419.00
2023-09-23T19:42:34.715Z,101430.00
2023-09-23T19:45:04.711Z,101425.00
2023-09-23T19:47:33.091Z,101436.00
2023-09-23T19:50:00.782Z,101436.00
2023-09-23T19:52:30.332Z,101438.00
2023-09-23T19:54:57.880Z,101431.00
2023-09-23T19:57:26.281Z,101441.00
2023-09-23T19:59:53.646Z,101443.00
2023-09-23T20:02:20.694Z,101442.00
2023-09-23T20:04:47.601Z,101439.00
2023-09-23T20:07:17.366Z,101451.00
2023-09-23T20:09:44.625Z,101455.00
2023-09-23T20:12:12.171Z,101458.00
2023-09-23T20:14:39.154Z,101475.00
2023-09-23T20:17:12.236Z,101475.00
2023-09-23T20:19:39.147Z,101472.00
2023-09-23T20:22:06.962Z,101472.00
2023-09-23T20:24:34.641Z,101478.00
2023-09-23T20:27:02.286Z,101487.00
2023-09-23T20:29:29.128Z,101484.00
2023-09-23T20:31:57.044Z,101488.00
2023-09-23T20:34:24.954Z,101490.00
2023-09-23T20:36:51.910Z,101489.00
2023-09-23T20:39:21.238Z,101492.00
2023-09-23T20:41:48.424Z,101491.00
2023-09-23T20:44:15.599Z,101496.00
2023-09-23T20:46:42.482Z,101497.00
2023-09-23T20:49:09.363Z,101506.00
2023-09-23T20:51:36.147Z,101497.00
2023-09-23T20:54:03.089Z,101503.00
2023-09-23T20:56:30.069Z,101508.00
2023-09-23T20:58:58.273Z,101508.00
2023-09-23T21:01:25.621Z,101517.00
2023-09-23T21:03:53.845Z,101516.00
2023-09-23T21:06:21.222Z,101526.00
2023-09-23T21:08:48.884Z,101530.00
2023-09-23T21:11:16.168Z,101534.00
2023-09-23T21:13:43.040Z,101537.00
2023-09-23T21:16:10.577Z,101536.00
2023-09-23T21:18:37.828Z,101537.00
2023-09-23T21:21:04.653Z,101531.00
2023-09-23T21:23:31.472Z,101535.00
2023-09-23T21:25:58.399Z,101545.00
2023-09-23T21:28:25.163Z,101549.00
2023-09-23T21:30:52.379Z,101539.00
2023-09-23T21:33:19.529Z,101544.00
2023-09-23T21:35:46.370Z,101538.00
2023-09-23T21:38:13.776Z,101535.00
2023-09-23T21:40:41.606Z,101536.00
2023-09-23T21:43:09.044Z,101538.00
2023-09-23T21:45:39.297Z,101537.00
2023-09-23T21:48:10.273Z,101545.00
2023-09-23T21:50:37.455Z,101559.00
2023-09-23T21:53:05.893Z,101556.00
2023-09-23T21:55:32.694Z,101549.00
2023-09-23T21:57:59.502Z,101555.00
2023-09-23T22:00:30.489Z,101557.00
2023-09-23T22:03:00.542Z,101557.00
2023-09-23T22:05:30.677Z,101556.00
2023-09-23T22:08:03.076Z,101564.00
2023-09-23T22:10:30.488Z,101565.00
2023-09-23T22:12:58.275Z,101569.00
2023-09-23T22:15:27.231Z,101569.00
2023-09-23T22:17:55.276Z,101567.00
2023-09-23T22:20:25.736Z,101563.00
2023-09-23T22:22:52.974Z,101564.00
2023-09-23T22:25:22.179Z,101557.00
2023-09-23T22:27:55.176Z,101563.00
2023-09-23T22:30:27.000Z,101570.00
2023-09-23T22:32:56.953Z,101563.00
2023-09-23T22:35:29.482Z,101573.00
2023-09-23T22:38:00.958Z,101569.00
2023-09-23T22:40:28.046Z,101574.00
2023-09-23T22:43:00.696Z,101570.00
2023-09-23T22:47:59.644Z,101574.00
2023-09-23T22:50:27.635Z,101581.00
2023-09-23T22:52:57.131Z,101578.00
2023-09-23T22:55:25.095Z,101586.00
2023-09-23T22:57:52.356Z,101584.00
2023-09-23T23:00:24.690Z,101589.00
2023-09-23T23:02:51.526Z,101584.00
2023-09-23T23:05:19.005Z,101578.00
2023-09-23T23:07:51.083Z,101588.00
2023-09-23T23:10:18.850Z,101596.00
2023-09-23T23:12:47.854Z,101596.00
2023-09-23T23:15:17.739Z,101593.00
2023-09-23T23:17:47.873Z,101603.00
2023-09-23T23:20:22.771Z,101605.00
2023-09-23T23:22:56.746Z,101606.00
2023-09-23T23:25:24.912Z,101608.00
2023-09-23T23:27:52.350Z,101618.00
2023-09-23T23:30:20.387Z,101612.00
2023-09-23T23:32:48.207Z,101628.00
2023-09-23T23:35:18.040Z,101620.00
2023-09-23T23:37:46.701Z,101626.00
2023-09-23T23:40:13.549Z,101633.00
2023-09-23T23:42:41.380Z,101631.00
2023-09-23T23:45:10.426Z,101632.00
2023-09-23T23:47:37.284Z,101638.00
2023-09-23T23:50:05.147Z,101639.00
2023-09-23T23:52:31.989Z,101636.00
2023-09-23T23:54:58.758Z,101641.00
2023-09-23T23:57:26.155Z,101635.00
2023-09-23T23:59:53.768Z,101641.00
